createdAt,value
2023-01-13T00:01:29.253Z,7.80
2023-01-13T00:03:57.559Z,7.60
2023-01-13T00:06:26.269Z,7.80
2023-01-13T00:08:54.599Z,7.80
2023-01-13T00:11:22.736Z,7.70
2023-01-13T00:13:50.668Z,7.60
2023-01-13T00:16:19.265Z,7.70
2023-01-13T00:18:47.847Z,7.60
2023-01-13T00:21:21.150Z,7.60
2023-01-13T00:23:48.791Z,7.60
2023-01-13T00:26:19.603Z,7.60
2023-01-13T00:28:47.559Z,7.50
2023-01-13T00:31:18.211Z,7.50
2023-01-13T00:33:46.558Z,7.40
2023-01-13T00:36:16.053Z,7.30
2023-01-13T00:38:44.491Z,7.30
2023-01-13T00:41:14.321Z,7.30
2023-01-13T00:43:42.047Z,7.30
2023-01-13T00:46:11.236Z,7.20
2023-01-13T00:48:39.324Z,7.20
2023-01-13T00:51:10.044Z,7.20
2023-01-13T00:53:40.130Z,7.20
2023-01-13T00:56:14.481Z,7.20
2023-01-13T00:58:43.227Z,7.20
2023-01-13T01:01:14.297Z,7.20
2023-01-13T01:03:41.991Z,7.20
2023-01-13T01:06:15.085Z,7.20
2023-01-13T01:08:43.315Z,7.20
2023-01-13T01:11:16.940Z,7.20
2023-01-13T01:13:45.611Z,7.20
2023-01-13T01:16:15.674Z,7.20
2023-01-13T01:18:45.416Z,7.20
2023-01-13T01:21:14.219Z,7.20
2023-01-13T01:23:42.446Z,7.20
2023-01-13T01:26:25.084Z,7.20
2023-01-13T01:28:52.738Z,7.20
2023-01-13T01:31:26.378Z,7.20
2023-01-13T01:33:55.145Z,7.20
2023-01-13T01:36:26.303Z,7.20
2023-01-13T01:38:55.895Z,7.20
2023-01-13T01:41:26.126Z,7.10
2023-01-13T01:44:21.163Z,7.20
2023-01-13T01:46:48.979Z,7.20
2023-01-13T01:49:37.137Z,7.20
2023-01-13T01:52:15.752Z,7.20
2023-01-13T01:54:49.860Z,7.20
2023-01-13T01:57:27.330Z,7.10
2023-01-13T01:59:55.695Z,7.10
2023-01-13T02:02:23.600Z,7.10
2023-01-13T02:04:53.731Z,7.10
2023-01-13T02:07:30.622Z,7.10
2023-01-13T02:10:01.658Z,7.10
2023-01-13T02:12:29.887Z,7.10
2023-01-13T02:15:05.990Z,7.10
2023-01-13T02:17:48.270Z,7.00
2023-01-13T02:20:51.433Z,7.00
2023-01-13T02:24:13.374Z,7.00
2023-01-13T02:27:02.308Z,7.00
2023-01-13T02:30:03.801Z,7.00
2023-01-13T02:33:07.422Z,7.00
2023-01-13T02:36:02.866Z,7.00
2023-01-13T02:38:51.706Z,7.00
2023-01-13T02:41:50.661Z,7.00
2023-01-13T02:44:24.322Z,7.00
2023-01-13T02:47:08.592Z,7.00
2023-01-13T02:49:54.145Z,7.00
2023-01-13T02:53:02.927Z,7.00
2023-01-13T02:55:41.147Z,7.00
2023-01-13T02:58:13.010Z,7.00
2023-01-13T03:00:41.640Z,6.90
2023-01-13T03:03:09.307Z,7.00
2023-01-13T03:05:37.904Z,6.90
2023-01-13T03:08:43.396Z,6.90
2023-01-13T03:11:13.530Z,7.00
2023-01-13T03:13:50.006Z,7.00
2023-01-13T03:16:31.109Z,6.90
2023-01-13T03:19:26.353Z,6.90
2023-01-13T03:22:15.975Z,6.90
2023-01-13T03:24:50.238Z,6.90
2023-01-13T03:27:35.156Z,6.90
2023-01-13T03:30:12.798Z,6.90
2023-01-13T03:32:46.473Z,6.90
2023-01-13T03:35:25.941Z,6.90
2023-01-13T03:38:25.507Z,6.90
2023-01-13T03:40:57.990Z,6.90
2023-01-13T03:43:59.843Z,6.90
2023-01-13T03:46:33.963Z,6.90
2023-01-13T03:49:04.550Z,6.90
2023-01-13T03:51:35.965Z,6.90
2023-01-13T03:54:09.134Z,6.80
2023-01-13T03:56:43.596Z,6.80
2023-01-13T03:59:17.211Z,6.70
2023-01-13T04:01:54.648Z,6.70
2023-01-13T04:04:36.506Z,6.60
2023-01-13T04:07:16.283Z,6.50
2023-01-13T04:09:52.653Z,6.50
2023-01-13T04:12:51.813Z,6.50
2023-01-13T04:15:23.210Z,6.50
2023-01-13T04:17:52.064Z,6.40
2023-01-13T04:20:19.959Z,6.40
2023-01-13T04:22:47.609Z,6.50
2023-01-13T04:25:15.236Z,6.40
2023-01-13T04:27:42.811Z,6.50
2023-01-13T04:30:11.065Z,6.50
2023-01-13T04:32:38.670Z,6.50
2023-01-13T04:35:07.121Z,6.50
2023-01-13T04:37:34.695Z,6.50
2023-01-13T04:40:02.251Z,6.50
2023-01-13T04:42:29.844Z,6.50
2023-01-13T04:44:57.501Z,6.50
2023-01-13T04:47:25.172Z,6.50
2023-01-13T04:49:52.680Z,6.50
2023-01-13T04:52:20.266Z,6.50
2023-01-13T04:54:47.978Z,6.50
2023-01-13T04:57:15.702Z,6.50
2023-01-13T04:59:43.286Z,6.40
2023-01-13T05:02:15.103Z,6.50
2023-01-13T05:04:42.764Z,6.40
2023-01-13T05:07:10.348Z,6.50
2023-01-13T05:09:37.921Z,6.50
2023-01-13T05:12:23.988Z,6.50
2023-01-13T05:15:10.390Z,6.60
2023-01-13T05:17:38.417Z,6.70
2023-01-13T05:20:07.087Z,6.70
2023-01-13T05:22:53.501Z,6.80
2023-01-13T05:25:28.062Z,6.80
2023-01-13T05:28:00.208Z,6.90
2023-01-13T05:30:33.387Z,6.90
2023-01-13T05:33:00.935Z,7.00
2023-01-13T05:35:31.603Z,7.00
2023-01-13T05:40:45.875Z,7.10
2023-01-13T05:43:22.024Z,7.10
2023-01-13T05:46:09.927Z,7.20
2023-01-13T05:48:39.673Z,7.20
2023-01-13T05:51:10.213Z,7.20
2023-01-13T05:53:38.184Z,7.20
2023-01-13T05:56:07.279Z,7.20
2023-01-13T05:58:35.305Z,7.20
2023-01-13T06:01:05.770Z,7.20
2023-01-13T06:03:33.778Z,7.20
2023-01-13T06:06:03.944Z,7.20
2023-01-13T06:08:32.348Z,7.30
2023-01-13T06:13:28.173Z,7.30
2023-01-13T06:15:57.855Z,7.30
2023-01-13T06:18:25.634Z,7.20
2023-01-13T06:20:53.272Z,7.30
2023-01-13T06:23:21.081Z,7.30
2023-01-13T06:26:00.159Z,7.30
2023-01-13T06:28:27.869Z,7.30
2023-01-13T06:30:59.917Z,7.30
2023-01-13T06:33:39.181Z,7.30
2023-01-13T06:36:14.513Z,7.30
2023-01-13T06:38:45.356Z,7.30
2023-01-13T06:43:41.357Z,7.30
2023-01-13T06:46:08.955Z,7.30
2023-01-13T06:48:36.578Z,7.40
2023-01-13T06:51:04.687Z,7.40
2023-01-13T06:53:32.362Z,7.40
2023-01-13T06:56:00.084Z,7.40
2023-01-13T06:58:29.381Z,7.40
2023-01-13T07:01:01.352Z,7.40
2023-01-13T07:05:57.389Z,7.50
2023-01-13T07:08:25.055Z,7.40
2023-01-13T07:10:53.133Z,7.50
2023-01-13T07:13:40.014Z,7.50
2023-01-13T07:16:09.187Z,7.50
2023-01-13T07:18:37.305Z,7.40
2023-01-13T07:21:09.589Z,7.40
2023-01-13T07:23:39.904Z,7.50
2023-01-13T07:26:10.013Z,7.50
2023-01-13T07:28:39.127Z,7.50
2023-01-13T07:31:18.021Z,7.50
2023-01-13T07:36:14.752Z,7.50
2023-01-13T07:38:44.560Z,7.50
2023-01-13T07:41:32.512Z,7.50
2023-01-13T07:44:02.826Z,7.50
2023-01-13T07:46:31.068Z,7.50
2023-01-13T07:48:58.742Z,7.60
2023-01-13T07:51:26.466Z,7.50
2023-01-13T07:53:54.425Z,7.50
2023-01-13T07:56:22.297Z,7.50
2023-01-13T07:58:53.324Z,7.50
2023-01-13T08:01:21.602Z,7.50
2023-01-13T08:03:49.287Z,7.40
2023-01-13T08:06:17.091Z,7.40
2023-01-13T08:08:44.648Z,7.40
2023-01-13T08:11:12.525Z,7.40
2023-01-13T08:13:40.127Z,7.40
2023-01-13T08:16:10.571Z,7.40
2023-01-13T08:18:38.790Z,7.40
2023-01-13T08:21:09.185Z,7.30
2023-01-13T08:23:37.186Z,7.40
2023-01-13T08:26:07.657Z,7.40
2023-01-13T08:28:35.476Z,7.30
2023-01-13T08:31:05.525Z,7.30
2023-01-13T08:33:33.926Z,7.40
2023-01-13T08:36:10.313Z,7.40
2023-01-13T08:38:38.307Z,7.40
2023-01-13T08:41:12.218Z,7.40
2023-01-13T08:43:39.889Z,7.40
2023-01-13T08:46:07.704Z,7.40
2023-01-13T08:48:35.403Z,7.40
2023-01-13T08:51:09.217Z,7.40
2023-01-13T08:53:36.911Z,7.40
2023-01-13T08:56:11.645Z,7.40
2023-01-13T08:58:40.721Z,7.40
2023-01-13T09:01:10.175Z,7.40
2023-01-13T09:03:39.132Z,7.50
2023-01-13T09:06:06.737Z,7.40
2023-01-13T09:11:22.424Z,7.50
2023-01-13T09:13:50.517Z,7.50
2023-01-13T09:16:18.374Z,7.40
2023-01-13T09:18:46.066Z,7.40
2023-01-13T09:21:14.205Z,7.40
2023-01-13T09:23:41.778Z,7.40
2023-01-13T09:26:09.864Z,7.50
2023-01-13T09:28:37.442Z,7.40
2023-01-13T09:31:05.200Z,7.50
2023-01-13T09:33:51.346Z,7.50
2023-01-13T09:36:19.606Z,7.60
2023-01-13T09:38:49.373Z,7.60
2023-01-13T09:41:44.222Z,7.70
2023-01-13T09:44:24.532Z,7.70
2023-01-13T09:47:00.763Z,7.70
2023-01-13T09:49:35.795Z,7.70
2023-01-13T09:52:15.226Z,7.70
2023-01-13T09:55:05.976Z,7.60
2023-01-13T09:57:37.842Z,7.60
2023-01-13T10:00:12.404Z,7.60
2023-01-13T10:03:02.037Z,7.60
2023-01-13T10:05:42.380Z,7.60
2023-01-13T10:08:26.695Z,7.70
2023-01-13T10:10:57.804Z,7.70
2023-01-13T10:13:26.877Z,7.80
2023-01-13T10:16:15.592Z,7.90
2023-01-13T10:18:55.593Z,8.10
2023-01-13T10:21:28.945Z,8.20
2023-01-13T10:24:11.668Z,8.20
2023-01-13T10:27:01.121Z,8.30
2023-01-13T10:29:30.393Z,8.30
2023-01-13T10:31:59.865Z,8.40
2023-01-13T10:34:28.671Z,8.40
2023-01-13T10:37:03.624Z,8.50
2023-01-13T10:39:43.543Z,8.60
2023-01-13T10:42:23.059Z,8.60
2023-01-13T10:44:56.530Z,8.70
2023-01-13T10:47:36.667Z,8.70
2023-01-13T10:50:28.644Z,8.70
2023-01-13T10:53:18.260Z,8.70
2023-01-13T10:56:00.915Z,8.70
2023-01-13T10:58:29.155Z,8.70
2023-01-13T11:01:07.285Z,8.70
2023-01-13T11:03:41.687Z,8.80
2023-01-13T11:06:19.093Z,8.80
2023-01-13T11:08:49.699Z,8.90
2023-01-13T11:11:40.377Z,9.00
2023-01-13T11:14:41.486Z,9.10
2023-01-13T11:17:23.579Z,9.20
2023-01-13T11:19:59.747Z,9.20
2023-01-13T11:22:39.058Z,9.30
2023-01-13T11:25:14.009Z,9.30
2023-01-13T11:27:55.649Z,9.40
2023-01-13T11:30:38.343Z,9.40
2023-01-13T11:33:15.087Z,9.50
2023-01-13T11:35:48.105Z,9.60
2023-01-13T11:38:47.870Z,9.60
2023-01-13T11:41:28.993Z,9.80
2023-01-13T11:44:17.471Z,10.00
2023-01-13T11:46:49.908Z,10.20
2023-01-13T11:49:28.437Z,10.10
2023-01-13T11:52:00.360Z,10.00
2023-01-13T11:54:45.777Z,9.90
2023-01-13T11:57:25.460Z,9.70
2023-01-13T11:59:58.887Z,9.70
2023-01-13T12:02:58.414Z,9.60
2023-01-13T12:06:07.857Z,9.50
2023-01-13T12:08:38.647Z,9.40
2023-01-13T12:11:56.874Z,9.20
2023-01-13T12:14:32.045Z,9.40
2023-01-13T12:17:01.554Z,9.40
2023-01-13T12:19:32.888Z,9.90
2023-01-13T12:22:36.068Z,10.10
2023-01-13T12:25:37.079Z,10.40
2023-01-13T12:28:15.316Z,10.60
2023-01-13T12:30:50.911Z,10.80
2023-01-13T12:33:44.633Z,10.80
2023-01-13T12:36:18.476Z,10.40
2023-01-13T12:38:48.711Z,10.10
2023-01-13T12:42:04.188Z,9.90
2023-01-13T12:44:31.964Z,9.70
2023-01-13T12:47:00.537Z,9.60
2023-01-13T12:49:31.569Z,9.70
2023-01-13T12:52:00.181Z,9.70
2023-01-13T12:54:30.750Z,9.60
2023-01-13T12:56:59.232Z,9.70
2023-01-13T12:59:26.726Z,9.60
2023-01-13T13:02:12.941Z,9.60
2023-01-13T13:04:53.137Z,9.60
2023-01-13T13:07:23.619Z,9.60
2023-01-13T13:10:15.251Z,10.60
2023-01-13T13:13:01.260Z,11.20
2023-01-13T13:15:31.331Z,11.30
2023-01-13T13:17:58.807Z,11.30
2023-01-13T13:20:54.515Z,11.10
2023-01-13T13:23:36.996Z,10.60
2023-01-13T13:26:20.315Z,10.20
2023-01-13T13:29:06.738Z,9.80
2023-01-13T13:31:43.320Z,9.50
2023-01-13T13:34:20.013Z,9.30
2023-01-13T13:37:12.270Z,9.30
2023-01-13T13:40:01.046Z,9.20
2023-01-13T13:42:36.013Z,10.10
2023-01-13T13:45:34.184Z,10.20
2023-01-13T13:48:29.359Z,10.90
2023-01-13T13:51:03.982Z,11.70
2023-01-13T13:53:35.715Z,12.20
2023-01-13T13:56:13.044Z,12.60
2023-01-13T13:58:40.975Z,12.40
2023-01-13T14:01:24.851Z,12.10
2023-01-13T14:04:06.695Z,12.10
2023-01-13T14:06:34.927Z,11.80
2023-01-13T14:09:04.087Z,11.40
2023-01-13T14:11:33.699Z,10.80
2023-01-13T14:14:07.188Z,10.40
2023-01-13T14:16:36.284Z,10.00
2023-01-13T14:19:04.087Z,10.00
2023-01-13T14:21:32.194Z,9.90
2023-01-13T14:24:14.646Z,9.90
2023-01-13T14:26:42.498Z,9.90
2023-01-13T14:29:15.889Z,9.80
2023-01-13T14:31:44.220Z,9.70
2023-01-13T14:34:31.468Z,9.60
2023-01-13T14:37:02.916Z,9.50
2023-01-13T14:39:41.137Z,9.50
2023-01-13T14:42:13.747Z,9.50
2023-01-13T14:44:48.612Z,9.60
2023-01-13T14:47:26.851Z,9.80
2023-01-13T14:50:07.560Z,10.00
2023-01-13T14:52:46.555Z,10.10
2023-01-13T14:55:26.193Z,10.10
2023-01-13T14:57:54.405Z,9.90
2023-01-13T15:00:25.249Z,9.90
2023-01-13T15:02:58.714Z,9.80
2023-01-13T15:08:14.041Z,9.50
2023-01-13T15:10:54.485Z,9.40
2023-01-13T15:13:27.547Z,9.30
2023-01-13T15:16:00.639Z,9.10
2023-01-13T15:18:28.325Z,9.00
2023-01-13T15:20:55.986Z,8.90
2023-01-13T15:23:23.794Z,8.80
2023-01-13T15:25:51.334Z,8.70
2023-01-13T15:28:20.766Z,8.70
2023-01-13T15:30:49.790Z,8.70
2023-01-13T15:33:18.122Z,8.70
2023-01-13T15:35:48.702Z,8.70
2023-01-13T15:38:19.614Z,8.70
2023-01-13T15:40:48.834Z,8.80
2023-01-13T15:43:42.781Z,8.70
2023-01-13T15:46:37.084Z,8.60
2023-01-13T15:49:12.881Z,8.60
2023-01-13T15:51:40.596Z,8.40
2023-01-13T15:54:08.733Z,8.40
2023-01-13T15:56:38.099Z,8.30
2023-01-13T15:59:14.462Z,8.20
2023-01-13T16:01:42.096Z,8.20
2023-01-13T16:04:09.962Z,8.10
2023-01-13T16:06:37.726Z,8.00
2023-01-13T16:09:06.012Z,7.90
2023-01-13T16:11:33.851Z,7.90
2023-01-13T16:14:01.605Z,7.80
2023-01-13T16:16:29.774Z,7.80
2023-01-13T16:18:57.454Z,7.60
2023-01-13T16:21:25.270Z,7.60
2023-01-13T16:23:52.994Z,7.60
2023-01-13T16:26:26.790Z,7.50
2023-01-13T16:28:57.335Z,7.40
2023-01-13T16:31:31.980Z,7.30
2023-01-13T16:34:01.515Z,7.30
2023-01-13T16:36:31.738Z,7.20
2023-01-13T16:38:59.429Z,7.20
2023-01-13T16:41:27.031Z,7.10
2023-01-13T16:43:54.738Z,7.10
2023-01-13T16:46:29.658Z,6.90
2023-01-13T16:49:03.734Z,6.90
2023-01-13T16:51:31.404Z,6.90
2023-01-13T16:53:59.248Z,6.80
2023-01-13T16:56:30.075Z,6.70
2023-01-13T16:59:01.329Z,6.70
2023-01-13T17:01:31.914Z,6.60
2023-01-13T17:04:00.292Z,6.60
2023-01-13T17:06:32.471Z,6.50
2023-01-13T17:09:15.381Z,6.50
2023-01-13T17:11:42.979Z,6.50
2023-01-13T17:14:18.991Z,6.40
2023-01-13T17:16:47.791Z,6.40
2023-01-13T17:19:15.437Z,6.40
2023-01-13T17:21:43.564Z,6.30
2023-01-13T17:24:12.443Z,6.30
2023-01-13T17:26:44.037Z,6.30
2023-01-13T17:29:14.685Z,6.30
2023-01-13T17:31:42.540Z,6.30
2023-01-13T17:34:11.888Z,6.30
2023-01-13T17:36:39.835Z,6.30
2023-01-13T17:39:07.451Z,6.30
2023-01-13T17:41:35.110Z,7.40
2023-01-13T17:44:02.650Z,6.40
2023-01-13T17:46:30.230Z,6.40
2023-01-13T17:48:57.889Z,6.40
2023-01-13T17:51:25.646Z,6.30
2023-01-13T17:53:53.901Z,7.00
2023-01-13T17:56:21.764Z,6.80
2023-01-13T17:58:49.334Z,6.30
2023-01-13T18:01:19.677Z,6.40
2023-01-13T18:03:48.303Z,6.30
2023-01-13T18:06:22.105Z,6.30
2023-01-13T18:08:50.829Z,6.40
2023-01-13T18:11:20.197Z,6.20
2023-01-13T18:13:55.225Z,6.20
2023-01-13T18:16:24.329Z,6.10
2023-01-13T18:18:52.868Z,6.10
2023-01-13T18:21:45.123Z,6.00
2023-01-13T18:24:34.255Z,6.00
2023-01-13T18:27:21.292Z,6.00
2023-01-13T18:29:57.026Z,6.00
2023-01-13T18:32:31.435Z,5.90
2023-01-13T18:35:09.661Z,5.90
2023-01-13T18:37:40.357Z,5.80
2023-01-13T18:40:11.399Z,5.90
2023-01-13T18:42:51.855Z,5.90
2023-01-13T18:45:21.672Z,5.80
2023-01-13T18:47:49.284Z,5.90
2023-01-13T18:50:17.552Z,5.80
2023-01-13T18:52:45.374Z,5.90
2023-01-13T18:55:13.410Z,5.80
2023-01-13T18:57:41.256Z,5.80
2023-01-13T19:00:12.400Z,5.80
2023-01-13T19:02:40.347Z,5.80
2023-01-13T19:05:08.209Z,5.80
2023-01-13T19:07:36.752Z,5.70
2023-01-13T19:10:06.315Z,5.70
2023-01-13T19:12:34.168Z,5.70
2023-01-13T19:15:02.363Z,5.70
2023-01-13T19:17:34.962Z,5.70
2023-01-13T19:20:05.042Z,5.80
2023-01-13T19:22:34.499Z,5.80
2023-01-13T19:25:03.585Z,5.80
2023-01-13T19:27:39.919Z,5.80
2023-01-13T19:30:08.683Z,5.90
2023-01-13T19:32:37.077Z,5.90
2023-01-13T19:35:05.421Z,5.90
2023-01-13T19:37:34.557Z,6.00
2023-01-13T19:40:09.285Z,6.00
2023-01-13T19:42:55.852Z,6.10
2023-01-13T19:45:26.524Z,6.10
2023-01-13T19:47:55.843Z,6.10
2023-01-13T19:50:24.533Z,6.20
2023-01-13T19:52:52.471Z,6.20
2023-01-13T19:55:20.557Z,6.30
2023-01-13T19:57:48.315Z,6.30
2023-01-13T20:00:20.437Z,6.40
2023-01-13T20:02:51.948Z,6.40
2023-01-13T20:05:22.631Z,6.40
2023-01-13T20:07:51.282Z,6.40
2023-01-13T20:10:21.339Z,6.50
2023-01-13T20:12:49.516Z,6.50
2023-01-13T20:15:17.161Z,6.50
2023-01-13T20:17:45.132Z,6.50
2023-01-13T20:20:14.991Z,6.50
2023-01-13T20:22:42.670Z,6.50
2023-01-13T20:25:11.583Z,6.50
2023-01-13T20:27:39.301Z,6.60
2023-01-13T20:30:09.645Z,6.50
2023-01-13T20:32:37.821Z,6.50
2023-01-13T20:35:07.267Z,6.60
2023-01-13T20:37:36.928Z,6.60
2023-01-13T20:40:06.289Z,6.60
2023-01-13T20:42:44.548Z,6.60
2023-01-13T20:45:19.866Z,6.60
2023-01-13T20:47:47.825Z,6.60
2023-01-13T20:50:16.082Z,6.70
2023-01-13T20:52:44.148Z,6.70
2023-01-13T20:55:12.230Z,6.60
2023-01-13T20:57:41.099Z,6.60
2023-01-13T21:00:10.426Z,6.60
2023-01-13T21:02:39.801Z,6.50
2023-01-13T21:05:08.039Z,6.50
2023-01-13T21:07:35.583Z,6.40
2023-01-13T21:10:03.872Z,6.40
2023-01-13T21:12:50.151Z,6.40
2023-01-13T21:15:17.781Z,6.40
2023-01-13T21:18:05.082Z,6.40
2023-01-13T21:20:37.289Z,6.30
2023-01-13T21:23:05.806Z,6.30
2023-01-13T21:25:35.395Z,6.20
2023-01-13T21:28:05.641Z,6.20
2023-01-13T21:30:34.003Z,6.20
2023-01-13T21:33:03.956Z,6.20
2023-01-13T21:35:31.807Z,6.10
2023-01-13T21:37:59.315Z,6.10
2023-01-13T21:40:27.027Z,6.10
2023-01-13T21:43:13.009Z,6.00
2023-01-13T21:45:59.082Z,6.10
2023-01-13T21:48:26.886Z,6.10
2023-01-13T21:50:54.361Z,6.00
2023-01-13T21:53:22.053Z,6.00
2023-01-13T21:55:52.626Z,6.00
2023-01-13T21:58:20.219Z,6.00
2023-01-13T22:00:48.942Z,6.00
2023-01-13T22:03:18.715Z,6.00
2023-01-13T22:05:47.176Z,6.10
2023-01-13T22:08:14.738Z,6.10
2023-01-13T22:11:02.629Z,6.10
2023-01-13T22:16:17.242Z,6.10
2023-01-13T22:18:44.936Z,6.20
2023-01-13T22:21:12.654Z,6.20
2023-01-13T22:23:40.212Z,6.20
2023-01-13T22:26:08.397Z,6.20
2023-01-13T22:28:45.242Z,6.30
2023-01-13T22:31:15.494Z,6.30
2023-01-13T22:33:43.658Z,6.30
2023-01-13T22:36:11.332Z,6.30
2023-01-13T22:38:39.163Z,6.40
2023-01-13T22:41:09.246Z,6.30
2023-01-13T22:43:38.156Z,6.30
2023-01-13T22:46:09.102Z,6.40
2023-01-13T22:48:37.701Z,6.40
2023-01-13T22:51:11.012Z,6.40
2023-01-13T22:53:39.445Z,6.40
2023-01-13T22:56:07.887Z,6.50
2023-01-13T22:58:35.528Z,6.50
2023-01-13T23:01:15.265Z,6.50
2023-01-13T23:03:46.343Z,6.50
2023-01-13T23:06:14.244Z,6.50
2023-01-13T23:08:41.845Z,6.50
2023-01-13T23:11:11.698Z,6.50
2023-01-13T23:13:39.928Z,6.50
2023-01-13T23:16:13.291Z,6.50
2023-01-13T23:18:48.316Z,6.50
2023-01-13T23:21:22.485Z,6.50
2023-01-13T23:23:50.450Z,6.50
2023-01-13T23:26:18.487Z,6.50
2023-01-13T23:28:46.278Z,6.50
2023-01-13T23:31:19.426Z,6.60
2023-01-13T23:33:47.458Z,6.60
2023-01-13T23:36:20.988Z,6.50
2023-01-13T23:38:49.068Z,6.50
2023-01-13T23:41:18.936Z,6.60
2023-01-13T23:43:57.358Z,6.50
2023-01-13T23:46:26.080Z,6.50
2023-01-13T23:56:24.767Z,6.40
2023-01-13T23:58:52.746Z,6.40
